sensor_id;sensor_type;location;lat;lon;timestamp;P1;durP1;ratioP1;P2;durP2;ratioP2
55172;SDS011;41061;52.822;6.860;2023-11-18T00:01:30;53.85;;;19.90;;
55172;SDS011;41061;52.822;6.860;2023-11-18T00:03:57;48.75;;;19.33;;
55172;SDS011;41061;52.822;6.860;2023-11-18T00:06:23;79.05;;;18.60;;
55172;SDS011;41061;52.822;6.860;2023-11-18T00:08:49;36.65;;;18.38;;
55172;SDS011;41061;52.822;6.860;2023-11-18T00:11:15;30.05;;;17.52;;
55172;SDS011;41061;52.822;6.860;2023-11-18T00:13:40;25.58;;;16.88;;
55172;SDS011;41061;52.822;6.860;2023-11-18T00:16:09;24.15;;;16.20;;
55172;SDS011;41061;52.822;6.860;2023-11-18T00:18:40;24.55;;;16.00;;
55172;SDS011;41061;52.822;6.860;2023-11-18T00:21:06;100.43;;;21.45;;
55172;SDS011;41061;52.822;6.860;2023-11-18T00:23:33;61.00;;;19.85;;
55172;SDS011;41061;52.822;6.860;2023-11-18T00:25:59;28.85;;;18.45;;
55172;SDS011;41061;52.822;6.860;2023-11-18T00:28:25;71.28;;;20.52;;
55172;SDS011;41061;52.822;6.860;2023-11-18T00:30:50;29.02;;;17.83;;
55172;SDS011;41061;52.822;6.860;2023-11-18T00:33:16;32.45;;;18.67;;
55172;SDS011;41061;52.822;6.860;2023-11-18T00:35:42;43.30;;;19.48;;
55172;SDS011;41061;52.822;6.860;2023-11-18T00:38:10;31.63;;;18.92;;
55172;SDS011;41061;52.822;6.860;2023-11-18T00:40:35;50.72;;;18.80;;
55172;SDS011;41061;52.822;6.860;2023-11-18T00:43:01;57.58;;;18.13;;
55172;SDS011;41061;52.822;6.860;2023-11-18T00:45:28;114.30;;;21.88;;
55172;SDS011;41061;52.822;6.860;2023-11-18T00:47:54;114.45;;;22.40;;
55172;SDS011;41061;52.822;6.860;2023-11-18T00:50:19;33.00;;;18.73;;
55172;SDS011;41061;52.822;6.860;2023-11-18T00:52:45;153.82;;;22.15;;
55172;SDS011;41061;52.822;6.860;2023-11-18T00:55:13;37.70;;;19.90;;
55172;SDS011;41061;52.822;6.860;2023-11-18T00:57:39;159.52;;;23.58;;
55172;SDS011;41061;52.822;6.860;2023-11-18T01:00:06;40.95;;;21.13;;
55172;SDS011;41061;52.822;6.860;2023-11-18T01:02:33;76.07;;;22.05;;
55172;SDS011;41061;52.822;6.860;2023-11-18T01:04:58;75.75;;;22.85;;
55172;SDS011;41061;52.822;6.860;2023-11-18T01:07:24;104.03;;;22.27;;
55172;SDS011;41061;52.822;6.860;2023-11-18T01:09:49;217.80;;;27.02;;
55172;SDS011;41061;52.822;6.860;2023-11-18T01:12:15;35.38;;;19.77;;
55172;SDS011;41061;52.822;6.860;2023-11-18T01:14:41;69.93;;;21.73;;
55172;SDS011;41061;52.822;6.860;2023-11-18T01:17:07;62.42;;;20.70;;
55172;SDS011;41061;52.822;6.860;2023-11-18T01:19:34;72.38;;;20.05;;
55172;SDS011;41061;52.822;6.860;2023-11-18T01:22:00;126.10;;;22.70;;
55172;SDS011;41061;52.822;6.860;2023-11-18T01:24:30;35.85;;;20.75;;
55172;SDS011;41061;52.822;6.860;2023-11-18T01:26:57;52.63;;;22.15;;
55172;SDS011;41061;52.822;6.860;2023-11-18T01:29:24;52.67;;;22.95;;
55172;SDS011;41061;52.822;6.860;2023-11-18T01:31:50;46.10;;;23.63;;
55172;SDS011;41061;52.822;6.860;2023-11-18T01:34:15;59.35;;;25.05;;
55172;SDS011;41061;52.822;6.860;2023-11-18T01:36:42;55.25;;;23.60;;
55172;SDS011;41061;52.822;6.860;2023-11-18T01:39:08;59.10;;;25.30;;
55172;SDS011;41061;52.822;6.860;2023-11-18T01:41:35;52.30;;;24.45;;
55172;SDS011;41061;52.822;6.860;2023-11-18T01:44:00;58.42;;;24.90;;
55172;SDS011;41061;52.822;6.860;2023-11-18T01:46:26;60.80;;;25.63;;
55172;SDS011;41061;52.822;6.860;2023-11-18T01:48:55;62.10;;;25.48;;
55172;SDS011;41061;52.822;6.860;2023-11-18T01:51:21;64.88;;;26.55;;
55172;SDS011;41061;52.822;6.860;2023-11-18T01:53:48;54.25;;;23.88;;
55172;SDS011;41061;52.822;6.860;2023-11-18T01:56:15;54.55;;;25.00;;
55172;SDS011;41061;52.822;6.860;2023-11-18T01:58:41;68.05;;;26.67;;
55172;SDS011;41061;52.822;6.860;2023-11-18T02:01:07;69.22;;;28.60;;
55172;SDS011;41061;52.822;6.860;2023-11-18T02:03:33;65.13;;;26.85;;
55172;SDS011;41061;52.822;6.860;2023-11-18T02:06:00;64.88;;;27.20;;
55172;SDS011;41061;52.822;6.860;2023-11-18T02:08:30;59.75;;;26.08;;
55172;SDS011;41061;52.822;6.860;2023-11-18T02:13:56;56.75;;;25.60;;
55172;SDS011;41061;52.822;6.860;2023-11-18T02:16:27;53.10;;;24.95;;
55172;SDS011;41061;52.822;6.860;2023-11-18T02:18:54;69.30;;;26.38;;
55172;SDS011;41061;52.822;6.860;2023-11-18T02:21:20;64.63;;;26.95;;
55172;SDS011;41061;52.822;6.860;2023-11-18T02:23:48;54.70;;;26.58;;
55172;SDS011;41061;52.822;6.860;2023-11-18T02:26:23;56.47;;;25.42;;
55172;SDS011;41061;52.822;6.860;2023-11-18T02:28:49;58.78;;;25.83;;
55172;SDS011;41061;52.822;6.860;2023-11-18T02:31:16;56.53;;;25.48;;
55172;SDS011;41061;52.822;6.860;2023-11-18T02:34:08;53.70;;;24.63;;
55172;SDS011;41061;52.822;6.860;2023-11-18T02:36:44;52.58;;;24.60;;
55172;SDS011;41061;52.822;6.860;2023-11-18T02:39:16;55.83;;;26.15;;
55172;SDS011;41061;52.822;6.860;2023-11-18T02:41:48;55.45;;;25.42;;
55172;SDS011;41061;52.822;6.860;2023-11-18T02:44:17;54.00;;;24.13;;
55172;SDS011;41061;52.822;6.860;2023-11-18T02:46:45;54.47;;;23.70;;
55172;SDS011;41061;52.822;6.860;2023-11-18T02:49:11;51.78;;;24.08;;
55172;SDS011;41061;52.822;6.860;2023-11-18T02:51:37;52.17;;;24.35;;
55172;SDS011;41061;52.822;6.860;2023-11-18T02:54:07;110.55;;;28.25;;
55172;SDS011;41061;52.822;6.860;2023-11-18T02:56:38;54.05;;;25.92;;
55172;SDS011;41061;52.822;6.860;2023-11-18T02:59:04;49.08;;;24.45;;
55172;SDS011;41061;52.822;6.860;2023-11-18T03:01:34;57.00;;;25.70;;
55172;SDS011;41061;52.822;6.860;2023-11-18T03:04:00;54.97;;;25.33;;
55172;SDS011;41061;52.822;6.860;2023-11-18T03:06:26;60.05;;;26.13;;
55172;SDS011;41061;52.822;6.860;2023-11-18T03:08:52;69.45;;;27.38;;
55172;SDS011;41061;52.822;6.860;2023-11-18T03:11:21;67.78;;;26.55;;
55172;SDS011;41061;52.822;6.860;2023-11-18T03:13:47;62.60;;;27.30;;
55172;SDS011;41061;52.822;6.860;2023-11-18T03:16:13;68.38;;;28.50;;
55172;SDS011;41061;52.822;6.860;2023-11-18T03:18:39;76.40;;;28.33;;
55172;SDS011;41061;52.822;6.860;2023-11-18T03:21:10;75.00;;;27.77;;
55172;SDS011;41061;52.822;6.860;2023-11-18T03:23:37;62.42;;;26.92;;
55172;SDS011;41061;52.822;6.860;2023-11-18T03:26:09;61.00;;;26.67;;
55172;SDS011;41061;52.822;6.860;2023-11-18T03:28:35;64.70;;;25.92;;
55172;SDS011;41061;52.822;6.860;2023-11-18T03:31:02;53.22;;;24.42;;
55172;SDS011;41061;52.822;6.860;2023-11-18T03:33:29;51.20;;;23.85;;
55172;SDS011;41061;52.822;6.860;2023-11-18T03:35:55;76.15;;;25.23;;
55172;SDS011;41061;52.822;6.860;2023-11-18T03:38:21;50.33;;;23.90;;
55172;SDS011;41061;52.822;6.860;2023-11-18T03:40:48;59.92;;;24.80;;
55172;SDS011;41061;52.822;6.860;2023-11-18T03:43:14;100.47;;;25.70;;
55172;SDS011;41061;52.822;6.860;2023-11-18T03:45:40;267.67;;;29.85;;
55172;SDS011;41061;52.822;6.860;2023-11-18T03:48:06;65.35;;;26.00;;
55172;SDS011;41061;52.822;6.860;2023-11-18T03:50:34;64.70;;;25.83;;
55172;SDS011;41061;52.822;6.860;2023-11-18T03:53:00;57.03;;;24.83;;
55172;SDS011;41061;52.822;6.860;2023-11-18T03:55:28;103.32;;;28.08;;
55172;SDS011;41061;52.822;6.860;2023-11-18T03:57:55;80.82;;;27.60;;
55172;SDS011;41061;52.822;6.860;2023-11-18T04:00:22;118.95;;;28.27;;
55172;SDS011;41061;52.822;6.860;2023-11-18T04:02:55;190.48;;;30.98;;
55172;SDS011;41061;52.822;6.860;2023-11-18T04:05:21;70.40;;;28.80;;
55172;SDS011;41061;52.822;6.860;2023-11-18T04:07:47;385.23;;;38.08;;
55172;SDS011;41061;52.822;6.860;2023-11-18T04:10:13;74.72;;;29.10;;
55172;SDS011;41061;52.822;6.860;2023-11-18T04:12:39;80.85;;;28.48;;
55172;SDS011;41061;52.822;6.860;2023-11-18T04:15:05;150.25;;;30.00;;
55172;SDS011;41061;52.822;6.860;2023-11-18T04:17:31;362.45;;;36.10;;
55172;SDS011;41061;52.822;6.860;2023-11-18T04:19:57;199.00;;;30.30;;
55172;SDS011;41061;52.822;6.860;2023-11-18T04:22:23;85.05;;;27.25;;
55172;SDS011;41061;52.822;6.860;2023-11-18T04:24:49;71.60;;;26.48;;
55172;SDS011;41061;52.822;6.860;2023-11-18T04:27:15;79.40;;;26.20;;
55172;SDS011;41061;52.822;6.860;2023-11-18T04:29:41;118.40;;;27.80;;
55172;SDS011;41061;52.822;6.860;2023-11-18T04:32:07;157.55;;;31.05;;
55172;SDS011;41061;52.822;6.860;2023-11-18T04:34:39;134.70;;;29.23;;
55172;SDS011;41061;52.822;6.860;2023-11-18T04:37:04;81.93;;;28.27;;
55172;SDS011;41061;52.822;6.860;2023-11-18T04:39:34;93.25;;;31.25;;
55172;SDS011;41061;52.822;6.860;2023-11-18T04:42:01;96.20;;;30.80;;
55172;SDS011;41061;52.822;6.860;2023-11-18T04:44:26;85.72;;;29.05;;
55172;SDS011;41061;52.822;6.860;2023-11-18T04:46:52;81.53;;;29.60;;
55172;SDS011;41061;52.822;6.860;2023-11-18T04:49:18;86.80;;;30.52;;
55172;SDS011;41061;52.822;6.860;2023-11-18T04:51:44;87.63;;;29.92;;
55172;SDS011;41061;52.822;6.860;2023-11-18T04:54:10;93.03;;;30.15;;
55172;SDS011;41061;52.822;6.860;2023-11-18T04:56:36;77.13;;;29.17;;
55172;SDS011;41061;52.822;6.860;2023-11-18T04:59:05;84.35;;;29.40;;
55172;SDS011;41061;52.822;6.860;2023-11-18T05:01:31;76.63;;;31.38;;
55172;SDS011;41061;52.822;6.860;2023-11-18T05:03:57;101.78;;;31.90;;
55172;SDS011;41061;52.822;6.860;2023-11-18T05:06:24;90.78;;;31.10;;
55172;SDS011;41061;52.822;6.860;2023-11-18T05:08:49;84.80;;;30.42;;
55172;SDS011;41061;52.822;6.860;2023-11-18T05:11:15;87.88;;;30.00;;
55172;SDS011;41061;52.822;6.860;2023-11-18T05:13:41;112.78;;;31.80;;
55172;SDS011;41061;52.822;6.860;2023-11-18T05:16:07;73.32;;;27.95;;
55172;SDS011;41061;52.822;6.860;2023-11-18T05:18:35;101.93;;;30.00;;
55172;SDS011;41061;52.822;6.860;2023-11-18T05:21:02;109.32;;;32.40;;
55172;SDS011;41061;52.822;6.860;2023-11-18T05:23:31;109.78;;;30.90;;
55172;SDS011;41061;52.822;6.860;2023-11-18T05:25:59;110.13;;;30.85;;
55172;SDS011;41061;52.822;6.860;2023-11-18T05:28:25;79.97;;;29.65;;
55172;SDS011;41061;52.822;6.860;2023-11-18T05:30:50;84.82;;;29.27;;
55172;SDS011;41061;52.822;6.860;2023-11-18T05:33:17;86.30;;;30.05;;
55172;SDS011;41061;52.822;6.860;2023-11-18T05:35:43;81.78;;;28.55;;
55172;SDS011;41061;52.822;6.860;2023-11-18T05:38:17;87.25;;;29.27;;
55172;SDS011;41061;52.822;6.860;2023-11-18T05:40:46;79.60;;;29.65;;
55172;SDS011;41061;52.822;6.860;2023-11-18T05:43:24;85.13;;;29.40;;
55172;SDS011;41061;52.822;6.860;2023-11-18T05:45:54;90.18;;;29.67;;
55172;SDS011;41061;52.822;6.860;2023-11-18T05:48:39;76.18;;;29.90;;
55172;SDS011;41061;52.822;6.860;2023-11-18T05:51:08;81.68;;;28.92;;
55172;SDS011;41061;52.822;6.860;2023-11-18T05:53:38;81.80;;;29.73;;
55172;SDS011;41061;52.822;6.860;2023-11-18T05:56:10;78.90;;;25.65;;
55172;SDS011;41061;52.822;6.860;2023-11-18T05:58:36;91.72;;;29.30;;
55172;SDS011;41061;52.822;6.860;2023-11-18T06:01:03;87.72;;;29.00;;
55172;SDS011;41061;52.822;6.860;2023-11-18T06:03:30;100.30;;;30.65;;
55172;SDS011;41061;52.822;6.860;2023-11-18T06:05:56;101.57;;;32.85;;
55172;SDS011;41061;52.822;6.860;2023-11-18T06:08:21;101.78;;;32.05;;
55172;SDS011;41061;52.822;6.860;2023-11-18T06:10:48;107.13;;;33.10;;
55172;SDS011;41061;52.822;6.860;2023-11-18T06:13:14;102.25;;;33.80;;
55172;SDS011;41061;52.822;6.860;2023-11-18T06:15:41;109.72;;;33.08;;
55172;SDS011;41061;52.822;6.860;2023-11-18T06:18:08;115.80;;;35.58;;
55172;SDS011;41061;52.822;6.860;2023-11-18T06:20:34;117.22;;;35.63;;
55172;SDS011;41061;52.822;6.860;2023-11-18T06:23:01;108.22;;;34.78;;
55172;SDS011;41061;52.822;6.860;2023-11-18T06:25:26;103.43;;;33.72;;
55172;SDS011;41061;52.822;6.860;2023-11-18T06:27:52;109.30;;;34.13;;
55172;SDS011;41061;52.822;6.860;2023-11-18T06:30:18;123.28;;;36.38;;
55172;SDS011;41061;52.822;6.860;2023-11-18T06:32:45;109.05;;;35.05;;
55172;SDS011;41061;52.822;6.860;2023-11-18T06:35:12;108.38;;;36.55;;
55172;SDS011;41061;52.822;6.860;2023-11-18T06:37:41;106.43;;;34.83;;
55172;SDS011;41061;52.822;6.860;2023-11-18T06:40:08;109.25;;;34.72;;
55172;SDS011;41061;52.822;6.860;2023-11-18T06:42:44;119.50;;;35.28;;
55172;SDS011;41061;52.822;6.860;2023-11-18T06:45:13;144.85;;;38.72;;
55172;SDS011;41061;52.822;6.860;2023-11-18T06:47:40;134.02;;;37.17;;
55172;SDS011;41061;52.822;6.860;2023-11-18T06:50:09;109.20;;;35.45;;
55172;SDS011;41061;52.822;6.860;2023-11-18T06:52:39;120.53;;;36.85;;
55172;SDS011;41061;52.822;6.860;2023-11-18T06:55:06;133.60;;;39.17;;
55172;SDS011;41061;52.822;6.860;2023-11-18T06:57:33;133.48;;;37.80;;
55172;SDS011;41061;52.822;6.860;2023-11-18T07:00:01;131.50;;;35.85;;
55172;SDS011;41061;52.822;6.860;2023-11-18T07:02:32;140.88;;;38.33;;
55172;SDS011;41061;52.822;6.860;2023-11-18T07:04:58;138.50;;;37.80;;
55172;SDS011;41061;52.822;6.860;2023-11-18T07:07:24;118.45;;;36.70;;
55172;SDS011;41061;52.822;6.860;2023-11-18T07:09:49;146.05;;;40.08;;
55172;SDS011;41061;52.822;6.860;2023-11-18T07:12:17;127.53;;;38.58;;
55172;SDS011;41061;52.822;6.860;2023-11-18T07:14:44;137.52;;;39.90;;
55172;SDS011;41061;52.822;6.860;2023-11-18T07:17:13;119.40;;;36.33;;
55172;SDS011;41061;52.822;6.860;2023-11-18T07:19:38;136.70;;;38.22;;
55172;SDS011;41061;52.822;6.860;2023-11-18T07:22:05;140.60;;;40.03;;
55172;SDS011;41061;52.822;6.860;2023-11-18T07:24:32;134.15;;;39.28;;
55172;SDS011;41061;52.822;6.860;2023-11-18T07:26:57;147.90;;;38.42;;
55172;SDS011;41061;52.822;6.860;2023-11-18T07:29:25;131.63;;;37.35;;
55172;SDS011;41061;52.822;6.860;2023-11-18T07:31:52;139.43;;;40.05;;
55172;SDS011;41061;52.822;6.860;2023-11-18T07:34:20;134.55;;;44.75;;
55172;SDS011;41061;52.822;6.860;2023-11-18T07:36:48;155.65;;;44.75;;
55172;SDS011;41061;52.822;6.860;2023-11-18T07:39:15;159.57;;;39.95;;
55172;SDS011;41061;52.822;6.860;2023-11-18T07:41:41;168.65;;;38.97;;
55172;SDS011;41061;52.822;6.860;2023-11-18T07:44:07;159.68;;;40.33;;
55172;SDS011;41061;52.822;6.860;2023-11-18T07:46:36;150.93;;;39.45;;
55172;SDS011;41061;52.822;6.860;2023-11-18T07:49:03;167.63;;;42.28;;
55172;SDS011;41061;52.822;6.860;2023-11-18T07:51:29;148.18;;;42.67;;
55172;SDS011;41061;52.822;6.860;2023-11-18T07:53:55;184.02;;;43.58;;
55172;SDS011;41061;52.822;6.860;2023-11-18T07:56:21;161.27;;;41.60;;
55172;SDS011;41061;52.822;6.860;2023-11-18T07:58:49;160.30;;;43.15;;
55172;SDS011;41061;52.822;6.860;2023-11-18T08:01:17;149.98;;;41.75;;
55172;SDS011;41061;52.822;6.860;2023-11-18T08:03:43;120.70;;;38.90;;
55172;SDS011;41061;52.822;6.860;2023-11-18T08:06:12;119.63;;;36.20;;
55172;SDS011;41061;52.822;6.860;2023-11-18T08:08:38;103.68;;;33.58;;
55172;SDS011;41061;52.822;6.860;2023-11-18T08:11:04;117.50;;;36.60;;
55172;SDS011;41061;52.822;6.860;2023-11-18T08:13:31;94.80;;;32.15;;
55172;SDS011;41061;52.822;6.860;2023-11-18T08:15:57;101.07;;;37.58;;
55172;SDS011;41061;52.822;6.860;2023-11-18T08:18:23;94.72;;;35.58;;
55172;SDS011;41061;52.822;6.860;2023-11-18T08:20:49;97.88;;;36.13;;
55172;SDS011;41061;52.822;6.860;2023-11-18T08:23:15;96.82;;;35.17;;
55172;SDS011;41061;52.822;6.860;2023-11-18T08:25:41;90.00;;;33.75;;
55172;SDS011;41061;52.822;6.860;2023-11-18T08:28:07;100.20;;;35.47;;
55172;SDS011;41061;52.822;6.860;2023-11-18T08:30:42;87.28;;;35.20;;
55172;SDS011;41061;52.822;6.860;2023-11-18T08:33:08;83.07;;;33.80;;
55172;SDS011;41061;52.822;6.860;2023-11-18T08:35:34;86.55;;;34.45;;
55172;SDS011;41061;52.822;6.860;2023-11-18T08:38:00;93.82;;;36.75;;
55172;SDS011;41061;52.822;6.860;2023-11-18T08:40:26;93.78;;;34.70;;
55172;SDS011;41061;52.822;6.860;2023-11-18T08:42:52;85.40;;;33.15;;
55172;SDS011;41061;52.822;6.860;2023-11-18T08:45:24;96.72;;;36.38;;
55172;SDS011;41061;52.822;6.860;2023-11-18T08:47:55;75.25;;;29.20;;
55172;SDS011;41061;52.822;6.860;2023-11-18T08:50:21;84.60;;;35.17;;
55172;SDS011;41061;52.822;6.860;2023-11-18T08:52:52;78.50;;;31.90;;
55172;SDS011;41061;52.822;6.860;2023-11-18T08:55:23;96.75;;;34.80;;
55172;SDS011;41061;52.822;6.860;2023-11-18T08:58:06;89.05;;;36.13;;
55172;SDS011;41061;52.822;6.860;2023-11-18T09:00:56;92.38;;;33.67;;
55172;SDS011;41061;52.822;6.860;2023-11-18T09:03:52;85.47;;;36.25;;
55172;SDS011;41061;52.822;6.860;2023-11-18T09:06:18;91.82;;;37.33;;
55172;SDS011;41061;52.822;6.860;2023-11-18T09:08:47;93.47;;;36.20;;
55172;SDS011;41061;52.822;6.860;2023-11-18T09:11:18;90.25;;;38.05;;
55172;SDS011;41061;52.822;6.860;2023-11-18T09:13:45;101.95;;;38.40;;
55172;SDS011;41061;52.822;6.860;2023-11-18T09:16:19;86.72;;;36.17;;
55172;SDS011;41061;52.822;6.860;2023-11-18T09:18:47;94.85;;;35.75;;
55172;SDS011;41061;52.822;6.860;2023-11-18T09:21:13;98.10;;;37.08;;
55172;SDS011;41061;52.822;6.860;2023-11-18T09:23:40;94.60;;;35.85;;
55172;SDS011;41061;52.822;6.860;2023-11-18T09:26:07;96.00;;;38.03;;
55172;SDS011;41061;52.822;6.860;2023-11-18T09:28:35;84.97;;;33.92;;
55172;SDS011;41061;52.822;6.860;2023-11-18T09:31:02;82.63;;;33.63;;
55172;SDS011;41061;52.822;6.860;2023-11-18T09:33:29;74.63;;;33.83;;
55172;SDS011;41061;52.822;6.860;2023-11-18T09:36:01;88.18;;;38.63;;
55172;SDS011;41061;52.822;6.860;2023-11-18T09:38:33;85.25;;;37.08;;
55172;SDS011;41061;52.822;6.860;2023-11-18T09:41:06;72.90;;;30.60;;
55172;SDS011;41061;52.822;6.860;2023-11-18T09:43:33;80.15;;;35.22;;
55172;SDS011;41061;52.822;6.860;2023-11-18T09:46:07;74.93;;;34.35;;
55172;SDS011;41061;52.822;6.860;2023-11-18T09:51:43;74.55;;;31.83;;
55172;SDS011;41061;52.822;6.860;2023-11-18T10:01:44;73.63;;;30.77;;
55172;SDS011;41061;52.822;6.860;2023-11-18T10:04:12;58.05;;;28.02;;
55172;SDS011;41061;52.822;6.860;2023-11-18T10:06:38;62.03;;;27.83;;
55172;SDS011;41061;52.822;6.860;2023-11-18T10:09:06;62.17;;;27.98;;
55172;SDS011;41061;52.822;6.860;2023-11-18T10:11:43;60.53;;;28.02;;
55172;SDS011;41061;52.822;6.860;2023-11-18T10:14:12;61.58;;;29.10;;
55172;SDS011;41061;52.822;6.860;2023-11-18T10:16:40;63.50;;;26.98;;
55172;SDS011;41061;52.822;6.860;2023-11-18T10:19:07;52.47;;;27.08;;
55172;SDS011;41061;52.822;6.860;2023-11-18T10:21:34;60.20;;;29.92;;
55172;SDS011;41061;52.822;6.860;2023-11-18T10:24:07;56.20;;;27.70;;
55172;SDS011;41061;52.822;6.860;2023-11-18T10:26:40;53.00;;;26.13;;
55172;SDS011;41061;52.822;6.860;2023-11-18T10:29:06;64.50;;;26.88;;
55172;SDS011;41061;52.822;6.860;2023-11-18T10:31:32;51.40;;;26.08;;
55172;SDS011;41061;52.822;6.860;2023-11-18T10:34:00;54.65;;;24.92;;
55172;SDS011;41061;52.822;6.860;2023-11-18T10:36:29;53.35;;;24.55;;
55172;SDS011;41061;52.822;6.860;2023-11-18T10:38:58;53.22;;;24.73;;
55172;SDS011;41061;52.822;6.860;2023-11-18T10:41:25;47.60;;;24.77;;
55172;SDS011;41061;52.822;6.860;2023-11-18T10:44:07;50.38;;;24.52;;
55172;SDS011;41061;52.822;6.860;2023-11-18T10:46:39;48.80;;;23.67;;
55172;SDS011;41061;52.822;6.860;2023-11-18T10:49:05;47.70;;;24.95;;
55172;SDS011;41061;52.822;6.860;2023-11-18T10:51:35;39.30;;;18.35;;
55172;SDS011;41061;52.822;6.860;2023-11-18T10:54:04;40.92;;;23.17;;
55172;SDS011;41061;52.822;6.860;2023-11-18T10:56:39;46.08;;;23.50;;
55172;SDS011;41061;52.822;6.860;2023-11-18T10:59:11;42.85;;;21.55;;
55172;SDS011;41061;52.822;6.860;2023-11-18T11:01:41;44.58;;;21.45;;
55172;SDS011;41061;52.822;6.860;2023-11-18T11:04:08;40.70;;;21.08;;
55172;SDS011;41061;52.822;6.860;2023-11-18T11:06:35;41.53;;;21.20;;
55172;SDS011;41061;52.822;6.860;2023-11-18T11:09:07;46.15;;;24.27;;
55172;SDS011;41061;52.822;6.860;2023-11-18T11:11:48;49.10;;;23.52;;
55172;SDS011;41061;52.822;6.860;2023-11-18T11:14:15;47.85;;;22.05;;
55172;SDS011;41061;52.822;6.860;2023-11-18T11:16:45;41.15;;;22.05;;
55172;SDS011;41061;52.822;6.860;2023-11-18T11:19:25;39.25;;;20.92;;
55172;SDS011;41061;52.822;6.860;2023-11-18T11:22:03;38.72;;;20.88;;
55172;SDS011;41061;52.822;6.860;2023-11-18T11:24:36;48.78;;;24.05;;
55172;SDS011;41061;52.822;6.860;2023-11-18T11:32:12;38.15;;;21.38;;
55172;SDS011;41061;52.822;6.860;2023-11-18T11:34:50;37.05;;;19.48;;
55172;SDS011;41061;52.822;6.860;2023-11-18T11:37:19;37.13;;;19.87;;
55172;SDS011;41061;52.822;6.860;2023-11-18T11:39:46;37.05;;;20.42;;
55172;SDS011;41061;52.822;6.860;2023-11-18T11:42:14;35.40;;;20.27;;
55172;SDS011;41061;52.822;6.860;2023-11-18T11:44:43;37.15;;;19.70;;
55172;SDS011;41061;52.822;6.860;2023-11-18T11:47:09;31.65;;;18.08;;
55172;SDS011;41061;52.822;6.860;2023-11-18T11:49:46;36.17;;;19.60;;
55172;SDS011;41061;52.822;6.860;2023-11-18T11:52:19;34.80;;;19.60;;
55172;SDS011;41061;52.822;6.860;2023-11-18T11:55:00;36.97;;;19.83;;
55172;SDS011;41061;52.822;6.860;2023-11-18T11:57:31;33.30;;;17.83;;
55172;SDS011;41061;52.822;6.860;2023-11-18T12:00:00;31.85;;;17.02;;
55172;SDS011;41061;52.822;6.860;2023-11-18T12:02:40;28.15;;;13.55;;
55172;SDS011;41061;52.822;6.860;2023-11-18T12:05:15;31.15;;;18.00;;
55172;SDS011;41061;52.822;6.860;2023-11-18T12:07:44;23.10;;;13.40;;
55172;SDS011;41061;52.822;6.860;2023-11-18T12:10:11;29.27;;;16.63;;
55172;SDS011;41061;52.822;6.860;2023-11-18T12:12:40;36.72;;;19.33;;
55172;SDS011;41061;52.822;6.860;2023-11-18T12:15:07;39.15;;;18.20;;
55172;SDS011;41061;52.822;6.860;2023-11-18T12:23:07;40.42;;;18.45;;
55172;SDS011;41061;52.822;6.860;2023-11-18T12:25:40;35.45;;;18.63;;
55172;SDS011;41061;52.822;6.860;2023-11-18T12:28:06;32.03;;;18.15;;
55172;SDS011;41061;52.822;6.860;2023-11-18T12:33:05;37.17;;;18.05;;
55172;SDS011;41061;52.822;6.860;2023-11-18T12:42:00;31.67;;;17.17;;
55172;SDS011;41061;52.822;6.860;2023-11-18T12:44:08;29.55;;;17.23;;
55172;SDS011;41061;52.822;6.860;2023-11-18T12:46:55;35.67;;;18.10;;
55172;SDS011;41061;52.822;6.860;2023-11-18T12:49:42;34.67;;;16.20;;
55172;SDS011;41061;52.822;6.860;2023-11-18T12:52:09;31.70;;;17.35;;
55172;SDS011;41061;52.822;6.860;2023-11-18T12:54:36;33.50;;;16.52;;
55172;SDS011;41061;52.822;6.860;2023-11-18T12:57:03;33.67;;;17.67;;
55172;SDS011;41061;52.822;6.860;2023-11-18T12:59:35;41.15;;;18.67;;
55172;SDS011;41061;52.822;6.860;2023-11-18T13:02:01;28.95;;;15.95;;
55172;SDS011;41061;52.822;6.860;2023-11-18T13:04:30;30.50;;;17.27;;
55172;SDS011;41061;52.822;6.860;2023-11-18T13:06:57;34.22;;;18.10;;
55172;SDS011;41061;52.822;6.860;2023-11-18T13:09:25;36.25;;;17.55;;
55172;SDS011;41061;52.822;6.860;2023-11-18T13:11:56;31.27;;;16.70;;
55172;SDS011;41061;52.822;6.860;2023-11-18T13:14:26;37.33;;;17.00;;
55172;SDS011;41061;52.822;6.860;2023-11-18T13:16:56;35.00;;;16.80;;
55172;SDS011;41061;52.822;6.860;2023-11-18T13:19:23;35.47;;;17.27;;
55172;SDS011;41061;52.822;6.860;2023-11-18T13:21:51;30.80;;;16.30;;
55172;SDS011;41061;52.822;6.860;2023-11-18T13:24:17;35.78;;;17.00;;
55172;SDS011;41061;52.822;6.860;2023-11-18T13:26:43;31.20;;;16.30;;
55172;SDS011;41061;52.822;6.860;2023-11-18T13:29:10;41.42;;;17.00;;
55172;SDS011;41061;52.822;6.860;2023-11-18T13:31:36;35.90;;;16.65;;
55172;SDS011;41061;52.822;6.860;2023-11-18T13:34:03;38.58;;;18.23;;
55172;SDS011;41061;52.822;6.860;2023-11-18T13:36:32;32.10;;;15.77;;
55172;SDS011;41061;52.822;6.860;2023-11-18T13:38:58;37.08;;;17.42;;
55172;SDS011;41061;52.822;6.860;2023-11-18T13:41:31;33.15;;;16.13;;
55172;SDS011;41061;52.822;6.860;2023-11-18T13:43:57;42.65;;;18.40;;
55172;SDS011;41061;52.822;6.860;2023-11-18T13:46:23;40.60;;;19.92;;
55172;SDS011;41061;52.822;6.860;2023-11-18T13:48:51;42.38;;;20.65;;
55172;SDS011;41061;52.822;6.860;2023-11-18T13:51:18;56.58;;;27.00;;
55172;SDS011;41061;52.822;6.860;2023-11-18T13:53:44;54.17;;;26.92;;
55172;SDS011;41061;52.822;6.860;2023-11-18T13:56:12;43.63;;;23.25;;
55172;SDS011;41061;52.822;6.860;2023-11-18T13:58:38;51.70;;;28.85;;
55172;SDS011;41061;52.822;6.860;2023-11-18T14:01:07;60.13;;;29.02;;
55172;SDS011;41061;52.822;6.860;2023-11-18T14:03:34;55.33;;;28.92;;
55172;SDS011;41061;52.822;6.860;2023-11-18T14:06:06;66.97;;;37.15;;
55172;SDS011;41061;52.822;6.860;2023-11-18T14:08:35;47.58;;;26.50;;
55172;SDS011;41061;52.822;6.860;2023-11-18T14:11:01;39.85;;;21.13;;
55172;SDS011;41061;52.822;6.860;2023-11-18T14:13:30;38.45;;;18.65;;
55172;SDS011;41061;52.822;6.860;2023-11-18T14:15:58;39.22;;;17.45;;
55172;SDS011;41061;52.822;6.860;2023-11-18T14:18:25;42.22;;;17.38;;
55172;SDS011;41061;52.822;6.860;2023-11-18T14:20:52;41.53;;;15.85;;
55172;SDS011;41061;52.822;6.860;2023-11-18T14:23:18;36.13;;;16.42;;
55172;SDS011;41061;52.822;6.860;2023-11-18T14:25:46;37.08;;;17.00;;
55172;SDS011;41061;52.822;6.860;2023-11-18T14:28:12;36.70;;;16.27;;
55172;SDS011;41061;52.822;6.860;2023-11-18T14:30:38;30.65;;;14.43;;
55172;SDS011;41061;52.822;6.860;2023-11-18T14:33:05;29.73;;;15.38;;
55172;SDS011;41061;52.822;6.860;2023-11-18T14:35:32;32.33;;;15.07;;
55172;SDS011;41061;52.822;6.860;2023-11-18T14:37:59;32.95;;;15.70;;
55172;SDS011;41061;52.822;6.860;2023-11-18T14:40:28;30.85;;;14.15;;
55172;SDS011;41061;52.822;6.860;2023-11-18T14:42:55;28.33;;;14.43;;
55172;SDS011;41061;52.822;6.860;2023-11-18T14:45:21;33.33;;;15.93;;
55172;SDS011;41061;52.822;6.860;2023-11-18T14:47:47;29.35;;;15.13;;
55172;SDS011;41061;52.822;6.860;2023-11-18T14:50:22;35.75;;;15.85;;
55172;SDS011;41061;52.822;6.860;2023-11-18T14:52:51;28.23;;;15.23;;
55172;SDS011;41061;52.822;6.860;2023-11-18T14:55:24;28.03;;;14.17;;
55172;SDS011;41061;52.822;6.860;2023-11-18T14:57:50;27.15;;;14.93;;